Latest Weather Observations for Proserpine

IDQ60801

Issued at 1:37 am EST Tuesday 26 July 2016 (issued every 30 minutes, with the page automatically refreshed every 10 minutes)

About weather observations | Map of weather stations | Latest weather observations for QLD | Other Formats
Station Details ID: 033247 Name: PROSERPINE AIRPORT Lat: -20.49 Lon: 148.56 Height: 19.7 m
Data from the previous 72 hours. | See also: Recent months at Proserpine
Date/Time
EST
Temp
°C
App
Temp
°C
Dew
Point
°C
Rel
Hum
%
Delta-T
°C
Wind Press
QNH
hPa
Press
MSL
hPa
Rain since
9am
mm
Dir  Spd
km/h
Gust
km/h
Spd
kts
Gust
kts
26/01:30am 14.5 13.2 13.7 95 0.4 SSW 13 13 7 7 1017.5 1017.5 0.0
26/01:00am 14.7 14.2 13.7 94 0.6 SSW 9 11 5 6 1018.0 1017.9 0.0
26/12:30am 14.9 14.1 13.9 94 0.6 SSW 11 11 6 6 1018.0 1017.9 0.0
26/12:00am 14.9 14.1 14.1 95 0.5 SSW 11 13 6 7 1018.0 1017.9 0.0
 
Date/Time
EST
Temp
°C
App
Temp
°C
Dew
Point
°C
Rel
Hum
%
Delta-T
°C
Wind Press
QNH
hPa
Press
MSL
hPa
Rain since
9am
mm
Dir  Spd
km/h
Gust
km/h
Spd
kts
Gust
kts
25/11:30pm 15.0 14.9 14.0 94 0.6 SW 7 9 4 5 1018.1 1018.0 0.0
25/11:00pm 15.2 15.8 14.2 94 0.6 SSW 4 7 2 4 1018.1 1018.0 0.0
25/10:30pm 15.4 16.1 14.4 94 0.6 SSW 4 7 2 4 1018.0 1017.9 0.0
25/10:00pm 15.9 17.5 14.9 94 0.6 CALM 0 0 0 0 1017.9 1017.8 0.0
25/09:30pm 16.2 17.8 14.9 92 0.7 CALM 0 0 0 0 1017.8 1017.7 0.0
25/09:00pm 16.7 17.0 15.1 90 0.9 SSW 7 9 4 5 1017.6 1017.6 0.0
25/08:30pm 17.2 17.6 15.2 88 1.2 S 7 9 4 5 1017.5 1017.5 0.0
25/08:00pm 17.8 18.5 15.6 87 1.3 S 6 7 3 4 1017.2 1017.2 0.0
25/07:30pm 17.8 17.9 15.4 86 1.4 SSW 9 11 5 6 1017.0 1017.0 0.0
25/07:00pm 18.1 18.5 15.4 84 1.6 SSW 7 11 4 6 1016.6 1016.6 0.0
25/06:30pm 19.0 19.5 15.5 80 2.1 SSW 7 7 4 4 1016.2 1016.2 0.0
25/06:00pm 19.9 20.0 15.5 76 2.6 SSW 9 11 5 6 1015.9 1015.9 0.0
25/05:30pm 21.5 21.5 15.1 67 3.8 SE 9 13 5 7 1015.8 1015.8 0.0
25/05:00pm 22.7 21.9 15.0 61 4.6 ESE 13 20 7 11 1015.5 1015.5 0.0
25/04:30pm 23.5 21.4 13.7 54 5.7 ESE 17 24 9 13 1015.2 1015.2 0.0
25/04:00pm 23.8 21.3 14.2 55 5.7 ESE 20 26 11 14 1015.1 1015.1 0.0
25/03:30pm 24.5 22.5 15.4 57 5.5 ESE 20 28 11 15 1014.8 1014.8 0.0
25/03:00pm 25.2 23.6 16.4 58 5.4 E 20 24 11 13 1014.8 1014.8 0.0
25/02:30pm 25.9 24.6 15.9 54 6.1 ESE 17 24 9 13 1014.9 1014.9 0.0
25/02:00pm 26.0 24.1 15.7 53 6.3 ESE 20 26 11 14 1015.2 1015.2 0.0
25/01:30pm 25.8 23.9 15.2 52 6.4 ESE 19 24 10 13 1015.5 1015.5 0.0
25/01:00pm 25.8 24.1 15.8 54 6.1 ESE 19 28 10 15 1015.9 1015.9 0.0
25/12:30pm 25.9 25.1 18.1 62 4.9 ESE 19 26 10 14 1016.4 1016.4 0.0
25/12:00pm 25.4 24.0 16.5 58 5.5 ESE 19 28 10 15 1016.9 1016.9 0.0
25/11:30am 25.7 24.5 16.0 55 5.9 ESE 17 24 9 13 1017.2 1017.2 0.0
25/11:00am 25.0 23.8 16.2 58 5.4 E 17 24 9 13 1017.5 1017.5 0.0
25/10:30am 23.9 24.8 18.3 71 3.5 ENE 11 17 6 9 1017.8 1017.7 0.0
25/10:02am 22.2 24.2 19.9 87 1.5 ENE 9 15 5 8 1018.1 1018.0 0.0
25/10:00am 22.2 24.3 20.1 88 1.3 E 9 15 5 8 1018.2 1018.1 0.0
25/09:40am 21.4 24.0 20.0 92 0.9 E 6 9 3 5 1018.2 1018.1 0.0
25/09:30am 21.1 23.8 20.3 95 0.5 E 6 9 3 5 1018.2 1018.1 0.0
25/09:16am 20.5 22.4 19.7 95 0.5 ESE 9 11 5 6 1018.3 1018.2 0.0
25/09:00am 20.4 22.1 19.4 94 0.6 ESE 9 13 5 7 1018.1 1018.0 0.2
25/08:46am 20.4 22.6 19.6 95 0.5 SSE 7 11 4 6 1018.2 1018.1 0.2
25/08:30am 19.6 21.8 19.1 97 0.3 S 6 9 3 5 1018.1 1018.0 0.2
25/08:01am 18.1 19.7 17.8 98 0.2 SE 6 9 3 5 1017.6 1017.6 0.2
25/08:00am 18.1 19.7 17.8 98 0.2 SE 6 7 3 4 1017.6 1017.6 0.2
25/07:57am 18.0 19.5 17.7 98 0.2 SSE 6 7 3 4 1017.5 1017.5 0.2
25/07:30am 16.7 18.1 16.5 99 0.1 SSE 4 7 2 4 1017.3 1017.3 0.2
25/07:00am 15.9 17.4 15.7 99 0.1 SSW 2 7 1 4 1016.8 1016.8 0.0
25/06:30am 16.0 16.6 15.7 98 0.2 SSW 7 11 4 6 1016.5 1016.5 0.0
25/06:00am 15.9 17.7 15.6 98 0.2 CALM 0 0 0 0 1016.3 1016.3 0.0
25/05:30am 15.7 17.5 15.4 98 0.2 CALM 0 0 0 0 1015.9 1015.9 0.0
25/05:10am 15.6 17.3 15.3 98 0.2 CALM 0 0 0 0 1015.7 1015.7 0.0
25/05:00am 15.6 17.3 15.3 98 0.2 CALM 0 0 0 0 1015.7 1015.7 0.0
25/04:30am 15.6 17.3 15.1 97 0.3 CALM 0 0 0 0 1015.6 1015.6 0.0
25/04:14am 15.6 17.3 15.1 97 0.3 CALM 0 0 0 0 1015.5 1015.5 0.0
25/04:00am 15.9 17.7 15.4 97 0.3 CALM 0 0 0 0 1015.4 1015.4 0.0
25/03:39am 16.2 18.1 15.7 97 0.3 CALM 0 0 0 0 1015.5 1015.5 0.0
25/03:30am 16.3 18.2 15.8 97 0.3 CALM 0 0 0 0 1015.4 1015.4 0.0
25/03:24am 16.4 18.3 15.8 96 0.4 CALM 0 0 0 0 1015.5 1015.5 0.0
25/03:11am 16.3 18.2 15.8 97 0.3 CALM 0 0 0 0 1015.6 1015.6 0.0
25/03:00am 16.4 18.4 15.9 97 0.3 CALM 0 0 0 0 1015.6 1015.6 0.0
25/02:30am 17.0 19.2 16.5 97 0.3 CALM 0 0 0 0 1015.6 1015.6 0.0
25/02:04am 16.8 18.5 16.3 97 0.3 SW 2 6 1 3 1015.6 1015.6 0.0
25/02:00am 16.7 18.0 16.2 97 0.3 SW 4 7 2 4 1015.6 1015.6 0.0
25/01:41am 17.1 18.0 16.6 97 0.3 SSW 7 7 4 4 1015.8 1015.8 0.0
25/01:30am 16.6 17.3 16.0 96 0.4 SSW 7 7 4 4 1015.8 1015.8 0.0
25/01:08am 16.9 19.0 16.3 96 0.4 CALM 0 0 0 0 1015.8 1015.8 0.0
25/01:00am 17.1 19.3 16.5 96 0.4 CALM 0 0 0 0 1015.8 1015.8 0.0
25/12:48am 17.5 19.9 16.9 96 0.4 CALM 0 0 0 0 1015.9 1015.9 0.0
25/12:33am 17.6 20.0 17.0 96 0.4 CALM 0 0 0 0 1016.0 1016.0 0.0
25/12:30am 17.8 20.3 17.2 96 0.4 CALM 0 0 0 0 1016.0 1016.0 0.0
25/12:00am 17.4 19.7 16.8 96 0.4 CALM 0 0 0 0 1016.1 1016.1 0.0
 
Date/Time
EST
Temp
°C
App
Temp
°C
Dew
Point
°C
Rel
Hum
%
Delta-T
°C
Wind Press
QNH
hPa
Press
MSL
hPa
Rain since
9am
mm
Dir  Spd
km/h
Gust
km/h
Spd
kts
Gust
kts
24/11:30pm 17.5 19.8 16.7 95 0.5 CALM 0 0 0 0 1016.1 1016.1 0.0
24/11:00pm 18.1 20.6 17.3 95 0.5 CALM 0 0 0 0 1016.2 1016.2 0.0
24/10:30pm 18.4 21.0 17.6 95 0.5 CALM 0 0 0 0 1016.2 1016.2 0.0
24/10:00pm 18.6 21.2 17.6 94 0.6 CALM 0 0 0 0 1016.3 1016.3 0.0
24/09:30pm 19.0 21.8 18.0 94 0.6 CALM 0 0 0 0 1016.1 1016.1 0.0
24/09:00pm 19.2 22.0 18.0 93 0.7 CALM 0 0 0 0 1015.7 1015.7 0.0
24/08:30pm 19.5 22.4 18.2 92 0.8 CALM 0 0 0 0 1015.5 1015.5 0.0
24/08:00pm 20.1 23.2 18.6 91 0.9 CALM 0 0 0 0 1015.3 1015.3 0.0
24/07:30pm 20.7 23.9 18.8 89 1.2 CALM 0 0 0 0 1015.0 1015.0 0.0
24/07:00pm 21.3 23.4 18.9 86 1.5 N 6 7 3 4 1014.8 1014.8 0.0
24/06:30pm 21.8 23.5 18.6 82 2.0 NNW 7 9 4 5 1014.5 1014.5 0.0
24/06:00pm 22.9 24.5 19.1 79 2.4 N 9 13 5 7 1014.1 1014.1 0.0
24/05:30pm 24.2 25.5 19.3 74 3.1 NNE 11 17 6 9 1013.8 1013.8 0.0
24/05:00pm 26.1 27.4 19.2 65 4.4 NNE 11 17 6 9 1013.5 1013.5 0.0
24/04:30pm 27.4 28.8 19.5 62 5.1 NE 11 15 6 8 1013.3 1013.3 0.0
24/04:00pm 28.7 29.1 17.2 49 7.2 NE 11 19 6 10 1012.9 1012.9 0.0
24/03:30pm 28.8 29.4 16.7 48 7.6 E 9 17 5 9 1012.9 1012.9 0.0
24/03:00pm 29.0 29.5 16.5 46 7.8 NNE 9 15 5 8 1012.9 1012.9 0.0
24/02:30pm 29.1 30.4 17.6 50 7.3 N 7 11 4 6 1013.0 1013.0 0.0
24/02:00pm 28.5 29.2 17.1 50 7.2 NNE 9 17 5 9 1013.3 1013.3 0.0
24/01:30pm 28.5 31.1 19.2 57 6.0 NNW 4 9 2 5 1013.8 1013.8 0.0
24/01:00pm 27.9 29.0 18.0 55 6.3 NW 9 13 5 7 1014.1 1014.1 0.0
24/12:30pm 28.1 30.3 19.6 60 5.5 N 7 13 4 7 1014.6 1014.6 0.0
24/12:00pm 27.0 28.7 18.0 58 5.7 N 6 11 3 6 1015.1 1015.1 0.0
24/11:30am 26.9 28.4 19.0 62 5.1 NW 9 15 5 8 1015.7 1015.7 0.0
24/11:00am 25.6 26.9 19.3 68 4.0 W 11 15 6 8 1016.1 1016.1 0.0
24/10:30am 25.2 26.8 20.0 73 3.4 NNW 11 15 6 8 1016.4 1016.4 0.0
24/10:00am 24.2 25.6 20.3 79 2.5 N 13 17 7 9 1016.6 1016.6 0.0
24/09:30am 23.2 25.8 20.5 85 1.8 NNW 7 11 4 6 1016.7 1016.7 0.0
24/09:00am 20.7 23.7 19.2 91 0.9 WSW 2 6 1 3 1016.7 1016.7 0.0
24/08:30am 19.1 22.0 18.1 94 0.6 CALM 0 0 0 0 1016.4 1016.4 0.0
24/08:00am 17.6 20.0 17.1 97 0.3 CALM 0 0 0 0 1016.2 1016.2 0.0
24/07:55am 17.2 19.5 16.7 97 0.3 CALM 0 0 0 0 1016.3 1016.3 0.0
24/07:53am 17.1 19.4 16.8 98 0.2 CALM 0 0 0 0 1016.3 1016.3 0.0
24/07:38am 16.5 18.6 16.2 98 0.2 CALM 0 0 0 0 1016.2 1016.2 0.0
24/07:31am 16.0 17.9 15.7 98 0.2 CALM 0 0 0 0 1016.2 1016.2 0.0
24/07:30am 16.0 17.9 15.7 98 0.2 CALM 0 0 0 0 1016.2 1016.2 0.0
24/07:21am 15.7 17.5 15.4 98 0.2 CALM 0 0 0 0 1016.1 1016.1 0.0
24/07:20am 15.7 17.5 15.4 98 0.2 CALM 0 0 0 0 1016.1 1016.1 0.0
24/07:00am 15.1 16.7 14.8 98 0.2 CALM 0 0 0 0 1015.9 1015.9 0.0
24/06:30am 15.2 16.8 14.9 98 0.2 CALM 0 0 0 0 1015.7 1015.7 0.0
24/06:02am 15.3 16.5 15.0 98 0.2 W 2 6 1 3 1015.3 1015.3 0.0
24/06:00am 15.3 16.5 15.0 98 0.2 W 2 6 1 3 1015.3 1015.3 0.0
24/05:30am 15.2 15.7 14.9 98 0.2 W 6 6 3 3 1014.9 1014.9 0.0
24/05:17am 15.4 17.1 15.1 98 0.2 CALM 0 0 0 0 1014.8 1014.8 0.0
24/05:16am 15.4 17.1 15.1 98 0.2 CALM 0 0 0 0 1014.8 1014.8 0.0
24/05:00am 15.6 17.3 15.3 98 0.2 CALM 0 0 0 0 1014.6 1014.6 0.0
24/04:30am 15.7 17.5 15.4 98 0.2 CALM 0 0 0 0 1014.3 1014.3 0.0
24/04:03am 15.9 17.7 15.6 98 0.2 CALM 0 0 0 0 1014.3 1014.3 0.0
24/04:00am 15.9 17.7 15.6 98 0.2 CALM 0 0 0 0 1014.3 1014.3 0.0
24/03:30am 15.9 17.4 15.6 98 0.2 W 2 6 1 3 1014.3 1014.3 0.0
24/03:00am 15.7 16.7 15.4 98 0.2 NNW 4 7 2 4 1014.2 1014.2 0.0
24/02:30am 16.1 17.9 15.6 97 0.3 CALM 0 0 0 0 1014.1 1014.1 0.0
24/02:06am 16.0 17.8 15.4 96 0.3 CALM 0 0 0 0 1014.2 1014.2 0.0
24/02:03am 16.1 17.9 15.5 96 0.3 CALM 0 0 0 0 1014.2 1014.2 0.0
24/02:00am 16.3 18.2 15.7 96 0.4 CALM 0 0 0 0 1014.2 1014.2 0.0
24/01:49am 16.5 18.5 16.0 97 0.3 CALM 0 0 0 0 1014.2 1014.2 0.0
24/01:30am 16.5 18.5 15.9 96 0.4 CALM 0 0 0 0 1014.2 1014.2 0.0
24/01:29am 16.5 18.5 15.9 96 0.4 CALM 0 0 0 0 1014.2 1014.2 0.0
24/01:20am 16.9 19.1 16.4 97 0.3 CALM 0 0 0 0 1014.3 1014.3 0.0
24/01:00am 16.9 19.1 16.4 97 0.3 CALM 0 0 0 0 1014.4 1014.4 0.0
24/12:47am 16.9 19.0 16.3 96 0.4 CALM 0 0 0 0 1014.4 1014.4 0.0
24/12:46am 16.9 19.0 16.3 96 0.4 CALM 0 0 0 0 1014.4 1014.4 0.0
24/12:30am 17.3 19.6 16.8 97 0.3 CALM 0 0 0 0 1014.4 1014.4 0.0
24/12:07am 17.6 20.0 17.0 96 0.4 CALM 0 0 0 0 1014.6 1014.6 0.0
24/12:00am 17.5 19.9 16.9 96 0.4 CALM 0 0 0 0 1014.6 1014.6 0.0
 
Date/Time
EST
Temp
°C
App
Temp
°C
Dew
Point
°C
Rel
Hum
%
Delta-T
°C
Wind Press
QNH
hPa
Press
MSL
hPa
Rain since
9am
mm
Dir  Spd
km/h
Gust
km/h
Spd
kts
Gust
kts
23/11:42pm 17.8 20.3 17.3 97 0.3 CALM 0 0 0 0 1014.7 1014.7 0.0
23/11:30pm 17.3 19.6 16.7 96 0.4 CALM 0 0 0 0 1014.7 1014.7 0.0
23/11:00pm 17.8 20.3 17.2 96 0.4 CALM 0 0 0 0 1014.8 1014.8 0.0
23/10:30pm 18.4 20.7 17.8 96 0.4 NW 2 6 1 3 1014.7 1014.7 0.0
23/10:00pm 19.1 20.9 18.4 96 0.4 NW 6 7 3 4 1014.7 1014.7 0.0
23/09:30pm 18.8 20.5 18.1 96 0.4 NW 6 7 3 4 1014.7 1014.7 0.0
23/09:00pm 18.8 20.2 17.8 94 0.6 NW 7 9 4 5 1014.6 1014.6 0.0
23/08:30pm 19.6 21.2 18.3 92 0.8 NNW 7 9 4 5 1014.3 1014.3 0.0
23/08:00pm 20.1 21.7 19.1 94 0.6 NNW 9 11 5 6 1014.1 1014.1 0.0
23/07:30pm 20.6 22.5 18.9 90 1.1 NNW 7 9 4 5 1014.0 1014.0 0.0
23/07:00pm 21.1 23.1 19.2 89 1.2 N 7 9 4 5 1013.6 1013.6 0.0
23/06:30pm 21.9 24.2 19.5 86 1.5 N 6 7 3 4 1013.2 1013.2 0.0
23/06:00pm 22.6 24.7 19.4 82 2.0 NNE 7 7 4 4 1012.9 1012.9 0.0
23/05:30pm 24.2 26.3 19.3 74 3.1 ENE 7 9 4 5 1012.5 1012.5 0.0
23/05:00pm 25.9 27.1 19.1 66 4.4 NE 11 15 6 8 1012.2 1012.2 0.0
23/04:30pm 27.7 28.6 17.5 53 6.4 NNE 9 11 5 6 1011.9 1011.9 0.0
23/04:00pm 28.0 29.2 16.9 51 6.9 NE 6 13 3 7 1011.9 1011.9 0.0
23/03:30pm 28.4 29.6 17.3 51 7.0 N 7 11 4 6 1012.0 1012.0 0.0
23/03:00pm 28.2 29.4 17.4 52 6.8 NNE 7 11 4 6 1012.1 1012.1 0.0
23/02:30pm 27.6 28.0 16.2 49 7.0 NNE 9 13 5 7 1012.4 1012.4 0.0
23/02:00pm 27.8 29.4 17.9 54 6.3 E 6 9 3 5 1012.9 1012.9 0.0
23/01:30pm 27.5 29.1 17.9 55 6.1 NW 6 11 3 6 1013.3 1013.3 0.0
23/01:00pm 27.6 30.0 18.9 59 5.6 NNE 4 11 2 6 1013.7 1013.7 0.0
23/12:30pm 26.9 28.6 18.5 60 5.4 N 7 11 4 6 1014.2 1014.2 0.0
23/12:00pm 26.1 27.7 18.2 61 5.0 NW 7 17 4 9 1014.7 1014.7 0.0
23/11:30am 25.2 27.1 18.6 67 4.2 NW 6 15 3 8 1015.2 1015.2 0.0
23/11:00am 25.1 26.7 18.3 66 4.3 N 7 13 4 7 1015.5 1015.5 0.0
23/10:30am 24.1 26.6 19.0 73 3.2 NNE 4 9 2 5 1016.0 1016.0 0.0
23/10:00am 23.0 25.6 18.3 75 2.9 SE 2 7 1 4 1016.3 1016.3 0.0
23/09:30am 22.0 25.5 19.5 86 1.6 CALM 0 6 0 3 1016.6 1016.6 0.0
23/09:00am 19.8 22.4 18.3 91 0.9 SSE 2 7 1 4 1016.6 1016.6 0.2
23/08:30am 18.2 19.6 17.4 95 0.5 SSW 6 9 3 5 1016.3 1016.3 0.2
23/08:00am 16.9 19.1 16.4 97 0.3 CALM 0 0 0 0 1016.2 1016.2 0.2
23/07:30am 15.6 17.4 15.4 99 0.1 CALM 0 0 0 0 1016.0 1016.0 0.2
23/07:16am 14.8 16.3 14.6 99 0.1 CALM 0 0 0 0 1015.9 1015.9 0.2
23/07:00am 14.4 15.7 14.2 99 0.1 CALM 0 0 0 0 1015.6 1015.6 0.2
23/06:58am 14.4 15.7 14.2 99 0.1 CALM 0 4 0 2 1015.6 1015.6 0.2
23/06:48am 14.5 15.1 14.3 99 0.1 SW 4 6 2 3 1015.5 1015.5 0.2
23/06:45am 14.5 14.7 14.3 99 0.1 SW 6 6 3 3 1015.5 1015.5 0.2
23/06:30am 14.7 16.1 14.5 99 0.1 CALM 0 4 0 2 1015.3 1015.3 0.2
23/06:00am 14.9 16.0 14.7 99 0.1 WSW 2 6 1 3 1014.9 1014.9 0.2
23/05:30am 14.8 15.0 14.6 99 0.1 W 7 9 4 5 1014.6 1014.6 0.2
23/05:08am 14.5 14.7 14.2 98 0.2 NW 6 7 3 4 1014.4 1014.4 0.2
23/05:00am 14.4 15.3 13.9 97 0.3 SW 2 6 1 3 1014.3 1014.3 0.2
23/04:59am 14.3 15.5 13.8 97 0.3 CALM 0 6 0 3 1014.3 1014.3 0.2
23/04:30am 15.1 16.6 14.6 97 0.3 CALM 0 0 0 0 1014.2 1014.2 0.2
23/04:00am 15.7 17.5 15.4 98 0.2 CALM 0 0 0 0 1014.1 1014.1 0.2
23/03:34am 16.1 18.0 15.8 98 0.2 CALM 0 0 0 0 1014.1 1014.1 0.2
23/03:30am 15.9 17.7 15.6 98 0.2 CALM 0 6 0 3 1014.1 1014.1 0.2
23/03:23am 15.8 16.4 15.3 97 0.3 SW 6 9 3 5 1014.0 1014.0 0.2
23/03:00am 15.6 15.9 15.1 97 0.3 SW 7 9 4 5 1014.1 1014.1 0.2
23/02:34am 16.3 18.2 15.8 97 0.3 CALM 0 0 0 0 1014.2 1014.2 0.2
23/02:30am 16.4 18.4 15.9 97 0.3 CALM 0 0 0 0 1014.3 1014.3 0.2
23/02:18am 16.2 16.9 15.7 97 0.3 SW 6 7 3 4 1014.4 1014.4 0.2
23/02:00am 16.5 17.4 16.0 97 0.3 SW 6 7 3 4 1014.5 1014.5 0.2
23/01:54am 16.6 17.5 16.1 97 0.3 SW 6 7 3 4 1014.5 1014.5 0.2

Other Formats:

Comma delimited format used in spreadsheet applications
http://www.bom.gov.au/fwo/IDQ60801/IDQ60801.94365.axf

JavaScript Object Notation format (JSON) in row-major order
http://www.bom.gov.au/fwo/IDQ60801/IDQ60801.94365.json